Time;durP1;ratioP1;P1;durP2;ratioP2;P2;SDS_P1;SDS_P2;PMS_P1;PMS_P2;Temp;Humidity;BMP_temperature;BMP_pressure;BME280_temperature;BME280_humidity;BME280_pressure;Samples;Min_cycle;Max_cycle;Signal;HPM_P1;HPM_P2
2023/05/08 00:00:03;;;;;;;3.45;1.90;;;;;;;;;;5069957;28;20401;-64
2023/05/08 00:02:32;;;;;;;2.35;1.60;;;;;;;;;;5065138;28;20135;-68
2023/05/08 00:05:00;;;;;;;2.72;0.98;;;;;;;;;;5065221;28;20052;-65
2023/05/08 00:07:29;;;;;;;2.53;1.63;;;;;;;;;;5066517;28;20544;-66
2023/05/08 00:09:59;;;;;;;4.28;1.13;;;;;;;;;;5069569;28;20119;-64
2023/05/08 00:12:27;;;;;;;3.67;1.55;;;;;;;;;;5066538;28;20048;-64
2023/05/08 00:14:55;;;;;;;5.03;2.05;;;;;;;;;;5069582;28;20147;-65
2023/05/08 00:17:24;;;;;;;2.72;1.80;;;;;;;;;;5058118;28;20464;-64
2023/05/08 00:19:52;;;;;;;4.07;1.27;;;;;;;;;;5067395;28;20497;-66
2023/05/08 00:22:21;;;;;;;3.67;2.10;;;;;;;;;;5064271;28;20056;-64
2023/05/08 00:24:49;;;;;;;8.20;2.08;;;;;;;;;;5068377;28;20040;-64
2023/05/08 00:27:19;;;;;;;3.63;2.25;;;;;;;;;;5065474;28;20136;-64
2023/05/08 00:29:49;;;;;;;2.03;1.52;;;;;;;;;;5068519;28;20050;-66
2023/05/08 00:32:17;;;;;;;2.75;1.52;;;;;;;;;;5061495;28;20063;-64
2023/05/08 00:34:45;;;;;;;2.05;1.30;;;;;;;;;;5068050;28;20411;-65
2023/05/08 00:37:14;;;;;;;4.43;1.67;;;;;;;;;;5063971;28;20040;-64
2023/05/08 00:39:42;;;;;;;3.20;1.42;;;;;;;;;;5059621;28;20059;-64
2023/05/08 00:42:10;;;;;;;2.33;1.00;;;;;;;;;;5068925;28;20048;-65
2023/05/08 00:44:40;;;;;;;3.20;1.30;;;;;;;;;;5065978;28;20048;-64
2023/05/08 00:47:09;;;;;;;4.32;1.45;;;;;;;;;;5064582;28;20053;-66
2023/05/08 00:49:37;;;;;;;2.80;1.70;;;;;;;;;;5063080;28;20123;-64
2023/05/08 00:52:07;;;;;;;3.70;1.67;;;;;;;;;;5064260;28;20119;-64
2023/05/08 00:54:36;;;;;;;2.53;1.50;;;;;;;;;;5067179;28;20098;-63
2023/05/08 00:57:04;;;;;;;3.70;1.35;;;;;;;;;;5066682;28;20503;-64
2023/05/08 00:59:34;;;;;;;3.00;1.33;;;;;;;;;;5067878;28;20136;-64
2023/05/08 01:02:04;;;;;;;5.25;2.22;;;;;;;;;;5076492;22;20037;-63
2023/05/08 01:04:34;;;;;;;2.33;1.30;;;;;;;;;;5016057;28;20066;-63
2023/05/08 01:07:03;;;;;;;4.35;2.08;;;;;;;;;;5016607;28;20104;-62
2023/05/08 01:09:31;;;;;;;3.90;1.63;;;;;;;;;;5017421;28;20084;-61
2023/05/08 01:12:04;;;;;;;3.45;1.85;;;;;;;;;;5017505;28;20049;-60
2023/05/08 01:14:37;;;;;;;2.85;1.38;;;;;;;;;;5017530;28;20052;-61
2023/05/08 01:17:10;;;;;;;1.92;1.17;;;;;;;;;;5016753;28;20053;-61
2023/05/08 01:19:50;;;;;;;2.83;1.30;;;;;;;;;;5017393;28;20181;-62
2023/05/08 01:22:24;;;;;;;3.88;2.08;;;;;;;;;;5016852;28;20054;-61
2023/05/08 01:25:03;;;;;;;3.75;1.90;;;;;;;;;;5016484;28;20060;-61
2023/05/08 01:27:47;;;;;;;4.18;1.80;;;;;;;;;;5016698;28;20050;-63
2023/05/08 01:30:33;;;;;;;5.25;2.25;;;;;;;;;;5016623;28;20490;-62
2023/05/08 01:33:06;;;;;;;2.45;1.60;;;;;;;;;;5009685;28;20057;-61
2023/05/08 01:35:36;;;;;;;5.57;2.17;;;;;;;;;;5011282;28;20060;-63
2023/05/08 01:38:08;;;;;;;5.95;2.92;;;;;;;;;;5010518;28;20491;-62
2023/05/08 01:40:41;;;;;;;3.47;1.50;;;;;;;;;;5008621;28;20165;-60
2023/05/08 01:43:13;;;;;;;3.20;1.80;;;;;;;;;;5003389;28;20109;-61
2023/05/08 01:45:45;;;;;;;6.15;1.80;;;;;;;;;;5011081;28;20046;-61
2023/05/08 01:48:18;;;;;;;5.40;1.77;;;;;;;;;;5013206;28;20049;-62
2023/05/08 01:50:48;;;;;;;4.82;1.35;;;;;;;;;;5006565;28;20431;-66
2023/05/08 01:53:20;;;;;;;7.90;2.00;;;;;;;;;;5007933;28;20542;-61
2023/05/08 01:55:50;;;;;;;4.55;1.70;;;;;;;;;;5011706;28;20050;-62
2023/05/08 01:58:19;;;;;;;6.00;1.75;;;;;;;;;;5011753;28;20050;-61
2023/05/08 02:00:48;;;;;;;4.35;2.55;;;;;;;;;;5014000;28;20049;-62
2023/05/08 02:03:19;;;;;;;4.63;1.48;;;;;;;;;;5007860;28;20534;-64
2023/05/08 02:05:49;;;;;;;3.38;1.50;;;;;;;;;;5007198;28;20077;-61
2023/05/08 02:08:18;;;;;;;4.15;1.90;;;;;;;;;;5008719;28;20570;-61
2023/05/08 02:10:47;;;;;;;5.88;2.08;;;;;;;;;;5003442;28;20048;-63
2023/05/08 02:13:17;;;;;;;3.22;2.05;;;;;;;;;;5014241;28;20038;-65
2023/05/08 02:15:48;;;;;;;10.70;2.42;;;;;;;;;;5005928;28;20042;-61
2023/05/08 02:18:19;;;;;;;2.60;1.77;;;;;;;;;;5001501;28;20049;-61
2023/05/08 02:20:49;;;;;;;2.75;1.52;;;;;;;;;;5009900;28;20076;-62
2023/05/08 02:23:18;;;;;;;3.47;1.83;;;;;;;;;;5007968;28;20050;-61
2023/05/08 02:25:47;;;;;;;3.40;1.70;;;;;;;;;;5005716;28;20044;-63
2023/05/08 02:28:17;;;;;;;4.60;1.70;;;;;;;;;;5007660;28;20058;-62
2023/05/08 02:30:45;;;;;;;2.65;1.30;;;;;;;;;;5009203;28;20088;-61
2023/05/08 02:33:14;;;;;;;4.10;2.08;;;;;;;;;;5008137;28;20443;-62
2023/05/08 02:35:44;;;;;;;3.35;1.20;;;;;;;;;;5011591;28;20155;-61
2023/05/08 02:38:15;;;;;;;2.78;1.65;;;;;;;;;;5008016;28;20038;-62
2023/05/08 02:40:46;;;;;;;3.60;1.92;;;;;;;;;;5010403;28;20108;-65
2023/05/08 02:43:15;;;;;;;3.53;1.30;;;;;;;;;;5007512;28;20068;-63
2023/05/08 02:45:46;;;;;;;2.45;1.33;;;;;;;;;;5009446;28;20410;-61
2023/05/08 02:48:17;;;;;;;2.75;1.50;;;;;;;;;;5016045;28;20060;-61
2023/05/08 02:50:48;;;;;;;6.88;2.33;;;;;;;;;;5002389;28;20050;-61
2023/05/08 02:53:20;;;;;;;3.83;1.60;;;;;;;;;;5005242;28;20046;-62
2023/05/08 02:55:50;;;;;;;3.80;1.38;;;;;;;;;;5002261;28;20052;-61
2023/05/08 02:58:21;;;;;;;3.20;1.95;;;;;;;;;;5011066;28;20049;-60
2023/05/08 03:00:53;;;;;;;3.22;1.60;;;;;;;;;;5012657;28;20057;-63
2023/05/08 03:03:23;;;;;;;2.13;1.45;;;;;;;;;;5008658;28;20436;-62
2023/05/08 03:05:53;;;;;;;5.20;1.80;;;;;;;;;;5012223;28;20411;-61
2023/05/08 03:08:25;;;;;;;3.05;1.45;;;;;;;;;;4999070;28;20048;-61
2023/05/08 03:10:56;;;;;;;6.50;2.03;;;;;;;;;;5004638;28;20168;-60
2023/05/08 03:13:25;;;;;;;3.05;1.38;;;;;;;;;;4996539;28;20042;-62
2023/05/08 03:15:55;;;;;;;5.57;1.92;;;;;;;;;;5004592;28;20077;-61
2023/05/08 03:18:34;;;;;;;2.83;1.58;;;;;;;;;;5003019;28;20046;-60
2023/05/08 03:21:02;;;;;;;2.88;1.55;;;;;;;;;;5006522;28;20149;-62
2023/05/08 03:23:34;;;;;;;2.00;1.58;;;;;;;;;;5009595;28;20500;-62
2023/05/08 03:26:03;;;;;;;1.80;1.40;;;;;;;;;;4999752;28;20046;-61
2023/05/08 03:28:32;;;;;;;6.40;2.03;;;;;;;;;;4996659;28;20407;-61
2023/05/08 03:31:01;;;;;;;7.82;1.83;;;;;;;;;;5007241;28;20049;-60
2023/05/08 03:33:32;;;;;;;2.88;1.60;;;;;;;;;;5009539;28;20120;-61
2023/05/08 03:36:00;;;;;;;3.83;1.88;;;;;;;;;;5008839;28;20061;-62
2023/05/08 03:38:29;;;;;;;3.55;1.27;;;;;;;;;;5004755;28;20129;-63
2023/05/08 03:40:59;;;;;;;3.10;1.58;;;;;;;;;;5007822;28;20054;-66
2023/05/08 03:43:28;;;;;;;7.18;2.22;;;;;;;;;;4992979;28;20058;-67
2023/05/08 03:45:57;;;;;;;5.13;2.03;;;;;;;;;;5014044;28;20049;-61
2023/05/08 03:48:25;;;;;;;3.63;1.52;;;;;;;;;;5013046;28;20056;-61
2023/05/08 03:50:54;;;;;;;3.55;1.42;;;;;;;;;;5008979;28;20053;-62
2023/05/08 03:53:22;;;;;;;3.22;1.50;;;;;;;;;;5010518;28;20056;-67
2023/05/08 03:55:50;;;;;;;2.90;1.35;;;;;;;;;;5012485;28;20046;-62
2023/05/08 03:58:25;;;;;;;2.90;1.60;;;;;;;;;;5009256;28;20054;-61
2023/05/08 04:00:59;;;;;;;2.63;1.40;;;;;;;;;;5001523;28;20536;-62
2023/05/08 04:03:33;;;;;;;10.07;1.85;;;;;;;;;;5012015;28;20060;-61
2023/05/08 04:06:03;;;;;;;2.53;1.13;;;;;;;;;;5006930;28;20048;-61
2023/05/08 04:08:34;;;;;;;3.78;1.90;;;;;;;;;;5004094;28;20053;-61
2023/05/08 04:11:06;;;;;;;3.22;1.33;;;;;;;;;;5010227;28;20049;-62
2023/05/08 04:13:37;;;;;;;3.75;2.13;;;;;;;;;;5002456;28;20048;-63
2023/05/08 04:16:07;;;;;;;3.42;1.55;;;;;;;;;;5001611;28;20100;-63
2023/05/08 04:18:37;;;;;;;3.22;1.25;;;;;;;;;;5004195;28;20041;-61
2023/05/08 04:21:09;;;;;;;3.08;1.30;;;;;;;;;;5008031;28;20052;-61
2023/05/08 04:23:39;;;;;;;3.90;2.10;;;;;;;;;;5008721;28;20521;-62
2023/05/08 04:26:08;;;;;;;3.95;1.17;;;;;;;;;;5006837;28;20552;-61
2023/05/08 04:28:38;;;;;;;3.35;1.63;;;;;;;;;;5006455;28;20046;-61
2023/05/08 04:31:07;;;;;;;2.95;1.83;;;;;;;;;;4999837;28;20048;-62
2023/05/08 04:33:35;;;;;;;3.83;2.35;;;;;;;;;;5006056;28;20550;-61
2023/05/08 04:36:04;;;;;;;5.38;1.63;;;;;;;;;;5003586;28;20057;-63
2023/05/08 04:38:36;;;;;;;4.90;1.25;;;;;;;;;;4998166;28;20068;-63
2023/05/08 04:41:05;;;;;;;4.25;2.38;;;;;;;;;;5001517;28;20140;-61
2023/05/08 04:43:33;;;;;;;7.00;2.28;;;;;;;;;;5004381;28;20048;-59
2023/05/08 04:46:04;;;;;;;2.78;1.45;;;;;;;;;;5012373;28;20139;-60
2023/05/08 04:48:33;;;;;;;7.30;1.80;;;;;;;;;;5002921;28;20056;-62
2023/05/08 04:51:01;;;;;;;1.48;1.15;;;;;;;;;;5006277;28;20048;-61
2023/05/08 04:53:30;;;;;;;3.15;1.67;;;;;;;;;;5002655;28;20408;-61
2023/05/08 04:55:58;;;;;;;3.97;1.52;;;;;;;;;;5003824;28;20065;-60
2023/05/08 04:58:27;;;;;;;2.53;1.50;;;;;;;;;;5007993;28;20130;-63
2023/05/08 05:00:56;;;;;;;4.45;1.73;;;;;;;;;;5005007;28;20109;-61
2023/05/08 05:03:25;;;;;;;4.00;1.70;;;;;;;;;;5009806;28;20058;-61
2023/05/08 05:05:58;;;;;;;4.97;1.90;;;;;;;;;;5012352;28;20053;-62
2023/05/08 05:08:27;;;;;;;5.43;1.83;;;;;;;;;;5010814;28;20112;-63
2023/05/08 05:10:55;;;;;;;3.47;1.60;;;;;;;;;;5010390;28;20074;-62
2023/05/08 05:13:24;;;;;;;4.28;1.45;;;;;;;;;;5009515;28;20589;-62
2023/05/08 05:15:53;;;;;;;1.67;1.10;;;;;;;;;;5006557;28;20683;-61
2023/05/08 05:18:21;;;;;;;2.20;1.33;;;;;;;;;;4999918;28;20100;-61
2023/05/08 05:20:51;;;;;;;2.95;1.92;;;;;;;;;;5012892;28;20492;-61
2023/05/08 05:23:19;;;;;;;3.03;1.77;;;;;;;;;;5000675;28;20064;-65
2023/05/08 05:25:48;;;;;;;3.45;1.65;;;;;;;;;;5000150;28;20052;-67
2023/05/08 05:28:16;;;;;;;7.18;1.75;;;;;;;;;;5000551;28;20298;-62
2023/05/08 05:30:47;;;;;;;5.25;2.35;;;;;;;;;;4998069;28;20657;-62
2023/05/08 05:33:15;;;;;;;3.60;1.48;;;;;;;;;;4999042;28;20049;-61
2023/05/08 05:35:43;;;;;;;5.07;1.60;;;;;;;;;;4998649;28;20049;-62
2023/05/08 05:38:13;;;;;;;4.28;1.95;;;;;;;;;;4999435;28;20173;-62
2023/05/08 05:40:41;;;;;;;2.53;1.73;;;;;;;;;;5000062;28;20046;-61
2023/05/08 05:43:10;;;;;;;3.55;1.60;;;;;;;;;;4999989;28;20054;-61
2023/05/08 05:45:38;;;;;;;3.92;2.35;;;;;;;;;;4998691;28;20061;-61
2023/05/08 05:48:07;;;;;;;5.43;2.33;;;;;;;;;;5001598;28;21363;-60
2023/05/08 05:50:36;;;;;;;4.57;1.98;;;;;;;;;;4999534;28;20712;-66
2023/05/08 05:53:05;;;;;;;3.88;2.53;;;;;;;;;;5002892;28;20049;-63
2023/05/08 05:55:34;;;;;;;3.78;1.27;;;;;;;;;;5002334;28;20042;-66
2023/05/08 05:58:03;;;;;;;5.13;1.65;;;;;;;;;;5001956;28;20442;-60
2023/05/08 06:00:31;;;;;;;3.67;1.58;;;;;;;;;;5002923;28;20054;-61
2023/05/08 06:03:01;;;;;;;4.07;1.63;;;;;;;;;;5004455;28;20065;-62
2023/05/08 06:05:29;;;;;;;3.00;1.58;;;;;;;;;;5003089;28;20050;-60
2023/05/08 06:07:58;;;;;;;5.35;2.20;;;;;;;;;;5001335;28;20052;-61
2023/05/08 06:10:26;;;;;;;2.92;1.30;;;;;;;;;;5002825;28;20045;-63
2023/05/08 06:12:56;;;;;;;5.93;1.95;;;;;;;;;;5002444;28;21226;-62
2023/05/08 06:15:25;;;;;;;2.10;1.58;;;;;;;;;;5002701;28;20479;-64
2023/05/08 06:17:53;;;;;;;4.43;1.55;;;;;;;;;;5003117;28;20054;-61
2023/05/08 06:20:22;;;;;;;5.72;1.80;;;;;;;;;;5002167;28;20053;-60
2023/05/08 06:22:53;;;;;;;5.50;2.20;;;;;;;;;;5001702;28;20050;-62
2023/05/08 06:25:21;;;;;;;4.15;1.63;;;;;;;;;;5001303;28;20078;-61
2023/05/08 06:27:50;;;;;;;3.40;1.25;;;;;;;;;;5002040;28;20058;-63
2023/05/08 06:30:19;;;;;;;3.88;1.30;;;;;;;;;;5001239;28;20570;-62
2023/05/08 06:32:48;;;;;;;3.75;1.98;;;;;;;;;;5000257;28;20411;-63
2023/05/08 06:35:18;;;;;;;5.22;1.48;;;;;;;;;;5000338;28;20045;-60
2023/05/08 06:37:46;;;;;;;2.13;1.50;;;;;;;;;;5000928;28;20466;-62
2023/05/08 06:40:15;;;;;;;4.85;1.95;;;;;;;;;;5001286;28;20041;-62
2023/05/08 06:42:43;;;;;;;7.50;2.03;;;;;;;;;;5001782;28;20050;-61
2023/05/08 06:45:12;;;;;;;3.92;1.88;;;;;;;;;;4998806;28;20073;-67
2023/05/08 06:47:42;;;;;;;5.03;1.60;;;;;;;;;;4999737;28;20057;-63
2023/05/08 06:50:10;;;;;;;3.53;1.80;;;;;;;;;;5002446;28;20050;-67
2023/05/08 06:52:39;;;;;;;5.93;1.80;;;;;;;;;;5003936;28;20049;-62
2023/05/08 06:55:08;;;;;;;4.60;1.77;;;;;;;;;;5004109;28;20145;-61
2023/05/08 06:57:36;;;;;;;5.00;1.98;;;;;;;;;;5002262;28;20056;-63
2023/05/08 07:00:05;;;;;;;4.78;2.25;;;;;;;;;;5002605;28;20085;-63
2023/05/08 07:02:34;;;;;;;3.90;1.92;;;;;;;;;;5001322;28;20060;-64
2023/05/08 07:05:04;;;;;;;3.90;2.20;;;;;;;;;;5002326;28;20046;-62
2023/05/08 07:07:32;;;;;;;2.15;1.73;;;;;;;;;;5001968;28;20077;-63
2023/05/08 07:10:00;;;;;;;3.13;1.65;;;;;;;;;;5002585;28;20466;-62
2023/05/08 07:12:29;;;;;;;6.07;2.17;;;;;;;;;;5002540;28;20046;-62
2023/05/08 07:14:57;;;;;;;4.07;1.92;;;;;;;;;;5002022;28;20104;-61
2023/05/08 07:17:26;;;;;;;6.13;1.73;;;;;;;;;;5003104;28;20050;-62
2023/05/08 07:19:54;;;;;;;3.35;1.15;;;;;;;;;;5000813;28;20644;-61
2023/05/08 07:22:24;;;;;;;6.15;1.80;;;;;;;;;;5004046;28;20056;-62
2023/05/08 07:24:52;;;;;;;1.95;1.45;;;;;;;;;;5003625;28;20049;-60
2023/05/08 07:27:21;;;;;;;4.15;2.03;;;;;;;;;;5000085;28;20054;-64
2023/05/08 07:29:49;;;;;;;7.82;1.98;;;;;;;;;;5000687;28;20060;-62
2023/05/08 07:32:17;;;;;;;7.10;2.28;;;;;;;;;;4999599;28;20060;-62
2023/05/08 07:34:46;;;;;;;5.82;2.25;;;;;;;;;;5002906;28;20058;-64
2023/05/08 07:37:14;;;;;;;6.28;2.53;;;;;;;;;;5001706;28;20137;-60
2023/05/08 07:39:46;;;;;;;5.80;2.05;;;;;;;;;;5003259;28;20050;-60
2023/05/08 07:42:16;;;;;;;4.78;2.28;;;;;;;;;;5001585;28;20046;-65
2023/05/08 07:44:45;;;;;;;5.57;1.48;;;;;;;;;;5000872;28;20081;-59
2023/05/08 07:47:22;;;;;;;4.63;1.58;;;;;;;;;;4999773;28;20070;-59
2023/05/08 07:49:50;;;;;;;2.58;1.63;;;;;;;;;;5001062;28;20054;-60
2023/05/08 07:52:18;;;;;;;4.90;1.83;;;;;;;;;;5000057;28;20045;-60
2023/05/08 07:54:48;;;;;;;5.47;1.65;;;;;;;;;;5000089;28;20042;-65
2023/05/08 07:57:16;;;;;;;4.20;2.22;;;;;;;;;;5000521;28;20046;-60
2023/05/08 07:59:45;;;;;;;3.30;1.85;;;;;;;;;;4999824;28;20517;-60
2023/05/08 08:02:13;;;;;;;7.53;2.13;;;;;;;;;;5001448;28;20046;-59
2023/05/08 08:04:41;;;;;;;5.95;2.20;;;;;;;;;;4997090;28;20430;-62
2023/05/08 08:07:10;;;;;;;5.75;1.58;;;;;;;;;;5000640;28;20173;-60
2023/05/08 08:09:38;;;;;;;4.30;2.00;;;;;;;;;;5001955;28;20649;-62
2023/05/08 08:12:08;;;;;;;5.28;2.03;;;;;;;;;;5000943;28;20069;-61
2023/05/08 08:14:36;;;;;;;3.58;1.55;;;;;;;;;;5003237;28;20046;-62
2023/05/08 08:17:05;;;;;;;4.25;2.17;;;;;;;;;;5000286;28;20136;-62
2023/05/08 08:19:33;;;;;;;2.72;1.58;;;;;;;;;;5001207;28;20045;-61
2023/05/08 08:22:01;;;;;;;4.97;2.35;;;;;;;;;;5000859;28;20491;-62
2023/05/08 08:24:30;;;;;;;6.00;2.22;;;;;;;;;;5001235;28;20073;-60
2023/05/08 08:26:59;;;;;;;5.82;1.90;;;;;;;;;;5000465;28;20042;-59
2023/05/08 08:29:29;;;;;;;4.20;2.30;;;;;;;;;;5000921;28;20050;-60
2023/05/08 08:31:57;;;;;;;4.72;2.33;;;;;;;;;;4998217;28;20045;-65
2023/05/08 08:34:25;;;;;;;3.88;2.03;;;;;;;;;;4999633;28;20046;-60
2023/05/08 08:36:54;;;;;;;5.10;2.22;;;;;;;;;;4999874;28;20056;-61
2023/05/08 08:39:22;;;;;;;3.10;1.88;;;;;;;;;;4999972;28;20046;-65
2023/05/08 08:41:51;;;;;;;9.35;2.25;;;;;;;;;;5000347;28;20041;-63
2023/05/08 08:44:19;;;;;;;5.28;2.22;;;;;;;;;;5001683;28;20104;-59
2023/05/08 08:46:51;;;;;;;6.82;2.22;;;;;;;;;;4999652;28;20071;-59
2023/05/08 08:49:25;;;;;;;4.03;1.80;;;;;;;;;;4999045;28;20053;-61
2023/05/08 08:51:56;;;;;;;3.78;2.00;;;;;;;;;;4998564;28;20049;-63
2023/05/08 08:54:25;;;;;;;7.22;2.42;;;;;;;;;;4999620;28;20465;-60
2023/05/08 08:56:54;;;;;;;7.05;2.17;;;;;;;;;;4998158;28;20046;-61
2023/05/08 08:59:23;;;;;;;4.95;1.77;;;;;;;;;;5001566;28;20097;-61
2023/05/08 09:01:55;;;;;;;6.18;2.25;;;;;;;;;;5000068;28;20418;-61
2023/05/08 09:04:26;;;;;;;3.42;1.75;;;;;;;;;;4998047;28;20065;-60
2023/05/08 09:06:55;;;;;;;6.63;2.03;;;;;;;;;;4998495;28;20125;-64
2023/05/08 09:09:23;;;;;;;4.47;2.25;;;;;;;;;;5005373;28;20133;-60
2023/05/08 09:11:53;;;;;;;7.68;2.67;;;;;;;;;;4999175;28;20070;-60
2023/05/08 09:14:23;;;;;;;5.57;2.47;;;;;;;;;;5001030;28;20137;-62
2023/05/08 09:16:51;;;;;;;4.88;2.25;;;;;;;;;;4998600;28;20422;-63
2023/05/08 09:19:21;;;;;;;4.05;2.05;;;;;;;;;;4999234;28;20511;-65
2023/05/08 09:21:55;;;;;;;5.47;2.42;;;;;;;;;;5000506;28;20049;-65
2023/05/08 09:24:23;;;;;;;5.60;2.53;;;;;;;;;;4999907;28;20056;-67
2023/05/08 09:26:51;;;;;;;4.80;2.50;;;;;;;;;;5003498;28;20466;-64
2023/05/08 09:29:21;;;;;;;4.28;2.55;;;;;;;;;;5003931;28;20050;-61
2023/05/08 09:31:50;;;;;;;5.35;2.28;;;;;;;;;;5002970;28;20056;-64
2023/05/08 09:34:27;;;;;;;4.18;1.98;;;;;;;;;;5003031;28;20136;-62
2023/05/08 09:36:56;;;;;;;4.80;2.70;;;;;;;;;;5004426;28;20034;-65
2023/05/08 09:39:25;;;;;;;5.95;3.13;;;;;;;;;;5004084;28;20038;-65
2023/05/08 09:42:00;;;;;;;6.90;3.80;;;;;;;;;;5004417;28;20073;-61
2023/05/08 09:44:28;;;;;;;4.93;2.38;;;;;;;;;;5005105;28;20081;-61
2023/05/08 09:47:17;;;;;;;5.15;2.22;;;;;;;;;;5001623;28;20042;-60
2023/05/08 09:49:59;;;;;;;6.55;2.38;;;;;;;;;;4996024;28;20050;-59
2023/05/08 09:52:28;;;;;;;3.55;2.35;;;;;;;;;;5002953;28;20121;-62
2023/05/08 09:55:00;;;;;;;5.88;2.63;;;;;;;;;;5002289;28;20046;-60
2023/05/08 09:57:30;;;;;;;4.25;2.35;;;;;;;;;;5004158;28;20073;-63
2023/05/08 10:00:03;;;;;;;4.55;2.38;;;;;;;;;;5002452;28;20137;-68
2023/05/08 10:02:32;;;;;;;7.38;2.35;;;;;;;;;;5002236;28;20058;-62
2023/05/08 10:05:02;;;;;;;3.83;2.17;;;;;;;;;;5003370;28;20104;-62
2023/05/08 10:07:31;;;;;;;19.42;2.85;;;;;;;;;;5002815;28;20078;-61
2023/05/08 10:10:00;;;;;;;3.40;2.40;;;;;;;;;;5002804;28;20070;-61
2023/05/08 10:12:29;;;;;;;7.72;2.88;;;;;;;;;;5001983;28;20666;-59
2023/05/08 10:14:58;;;;;;;6.80;1.88;;;;;;;;;;5004078;28;20046;-59
2023/05/08 10:17:27;;;;;;;5.68;3.00;;;;;;;;;;5001377;28;21313;-59
2023/05/08 10:19:59;;;;;;;6.55;3.13;;;;;;;;;;5001959;28;20562;-62
2023/05/08 10:22:30;;;;;;;8.38;2.88;;;;;;;;;;5003356;28;20482;-60
2023/05/08 10:24:59;;;;;;;11.73;2.92;;;;;;;;;;4998688;28;20041;-64
2023/05/08 10:27:31;;;;;;;11.15;3.58;;;;;;;;;;5004261;28;20096;-65
2023/05/08 10:30:02;;;;;;;6.25;2.45;;;;;;;;;;5003260;28;20062;-67
2023/05/08 10:32:36;;;;;;;8.82;3.25;;;;;;;;;;5002611;28;20100;-60
2023/05/08 10:35:07;;;;;;;7.55;2.85;;;;;;;;;;5002702;28;20072;-63
2023/05/08 10:37:37;;;;;;;10.93;3.97;;;;;;;;;;4999845;28;20136;-62
2023/05/08 10:40:06;;;;;;;5.90;2.72;;;;;;;;;;5000266;28;20056;-63
2023/05/08 10:42:35;;;;;;;4.55;3.00;;;;;;;;;;4999730;28;20053;-63
2023/05/08 10:45:04;;;;;;;6.13;2.72;;;;;;;;;;5001713;28;20466;-60
2023/05/08 10:47:37;;;;;;;9.25;3.53;;;;;;;;;;5001910;28;20058;-61
2023/05/08 10:50:11;;;;;;;6.18;2.88;;;;;;;;;;5003374;28;20056;-61
2023/05/08 10:52:43;;;;;;;4.75;2.80;;;;;;;;;;5002091;28;20058;-60
2023/05/08 10:55:20;;;;;;;7.25;3.55;;;;;;;;;;5000648;28;20049;-62
2023/05/08 10:58:02;;;;;;;6.57;2.85;;;;;;;;;;5002007;28;20738;-62
2023/05/08 11:00:32;;;;;;;6.28;3.17;;;;;;;;;;5000465;28;20491;-62
2023/05/08 11:03:07;;;;;;;7.00;2.70;;;;;;;;;;5002096;28;20464;-60
2023/05/08 11:05:51;;;;;;;7.80;3.13;;;;;;;;;;5000863;28;20141;-61
2023/05/08 11:08:23;;;;;;;6.28;2.63;;;;;;;;;;5001799;28;20042;-62
2023/05/08 11:10:52;;;;;;;7.68;3.78;;;;;;;;;;5002018;28;20045;-63
2023/05/08 11:13:28;;;;;;;7.55;3.35;;;;;;;;;;5002040;28;20064;-59
2023/05/08 11:15:56;;;;;;;4.97;2.90;;;;;;;;;;5000234;28;20064;-63
2023/05/08 11:18:25;;;;;;;7.55;2.78;;;;;;;;;;4998788;28;20152;-67
2023/05/08 11:20:59;;;;;;;;;;;;;;;;;;5002572;28;20061;-62
2023/05/08 11:23:30;;;;;;;8.52;3.28;;;;;;;;;;5001546;28;19926;-62
2023/05/08 11:26:02;;;;;;;7.25;3.53;;;;;;;;;;5004205;28;20092;-63
2023/05/08 11:28:32;;;;;;;7.57;3.22;;;;;;;;;;5002178;28;20141;-61
2023/05/08 11:31:03;;;;;;;6.88;3.30;;;;;;;;;;5002685;28;20148;-61
2023/05/08 11:33:32;;;;;;;7.28;2.92;;;;;;;;;;5000465;28;20049;-59
2023/05/08 11:36:01;;;;;;;6.55;3.30;;;;;;;;;;5001212;28;20128;-65
2023/05/08 11:38:36;;;;;;;13.45;3.45;;;;;;;;;;5000548;28;20037;-59
2023/05/08 11:41:06;;;;;;;9.75;3.10;;;;;;;;;;4998485;28;20046;-60
2023/05/08 11:43:52;;;;;;;6.45;2.85;;;;;;;;;;5002091;28;20136;-61
2023/05/08 11:46:21;;;;;;;9.05;2.85;;;;;;;;;;4999462;28;20064;-64
2023/05/08 11:48:49;;;;;;;7.90;2.90;;;;;;;;;;4999942;28;20042;-61
2023/05/08 11:51:19;;;;;;;8.73;3.70;;;;;;;;;;5001820;28;20155;-62
2023/05/08 11:53:49;;;;;;;11.32;3.03;;;;;;;;;;5001442;28;20057;-60
2023/05/08 11:56:17;;;;;;;6.88;2.95;;;;;;;;;;5000466;28;20046;-61
2023/05/08 11:58:46;;;;;;;8.18;3.53;;;;;;;;;;4999954;28;20046;-60
2023/05/08 12:01:17;;;;;;;8.85;3.30;;;;;;;;;;5000546;28;20566;-60
2023/05/08 12:03:46;;;;;;;7.07;3.40;;;;;;;;;;4998123;28;20053;-60
2023/05/08 12:06:14;;;;;;;5.28;3.13;;;;;;;;;;5001291;28;20061;-63
2023/05/08 12:08:43;;;;;;;6.50;2.80;;;;;;;;;;5000893;28;20503;-60
2023/05/08 12:11:13;;;;;;;7.18;3.47;;;;;;;;;;5001712;28;20057;-60
2023/05/08 12:13:41;;;;;;;8.13;3.50;;;;;;;;;;5000068;28;20144;-62
2023/05/08 12:16:11;;;;;;;6.75;3.20;;;;;;;;;;4997930;28;20057;-62
2023/05/08 12:18:41;;;;;;;8.50;3.10;;;;;;;;;;5002152;28;20064;-60
2023/05/08 12:21:09;;;;;;;6.38;3.40;;;;;;;;;;5001371;28;20049;-59
2023/05/08 12:23:38;;;;;;;6.22;3.20;;;;;;;;;;4998025;28;20049;-66
2023/05/08 12:26:08;;;;;;;8.40;3.22;;;;;;;;;;5000187;28;20050;-62
2023/05/08 12:28:38;;;;;;;6.47;2.80;;;;;;;;;;5001721;28;20061;-62
2023/05/08 12:31:07;;;;;;;11.57;4.03;;;;;;;;;;5000103;28;20487;-60
2023/05/08 12:33:37;;;;;;;6.80;3.00;;;;;;;;;;5001401;28;20054;-59
2023/05/08 12:36:06;;;;;;;7.85;2.85;;;;;;;;;;4999925;28;20139;-60
2023/05/08 12:38:34;;;;;;;11.82;3.75;;;;;;;;;;4998103;28;20046;-61
2023/05/08 12:41:05;;;;;;;7.95;4.25;;;;;;;;;;5000613;28;20104;-60
2023/05/08 12:43:34;;;;;;;6.10;3.28;;;;;;;;;;5001032;28;20130;-63
2023/05/08 12:46:05;;;;;;;8.73;3.42;;;;;;;;;;5001409;28;20081;-60
2023/05/08 12:48:33;;;;;;;8.82;2.95;;;;;;;;;;5000862;28;20082;-60
2023/05/08 12:51:03;;;;;;;7.30;3.28;;;;;;;;;;5002825;28;20041;-63
2023/05/08 12:53:32;;;;;;;7.07;2.80;;;;;;;;;;4999840;28;20061;-62
2023/05/08 12:56:02;;;;;;;11.60;3.85;;;;;;;;;;5000144;28;20075;-61
2023/05/08 12:58:32;;;;;;;10.88;3.92;;;;;;;;;;5001738;28;20153;-59
2023/05/08 13:01:06;;;;;;;6.82;3.17;;;;;;;;;;5004533;28;20046;-59
2023/05/08 13:03:34;;;;;;;8.20;3.80;;;;;;;;;;5002332;28;20533;-60
2023/05/08 13:06:03;;;;;;;7.55;4.35;;;;;;;;;;5006066;28;20434;-60
2023/05/08 13:08:32;;;;;;;8.68;3.75;;;;;;;;;;5004168;28;20042;-60
2023/05/08 13:11:01;;;;;;;7.30;3.05;;;;;;;;;;5006446;28;20116;-66
2023/05/08 13:13:31;;;;;;;10.30;2.75;;;;;;;;;;5003500;28;20479;-63
2023/05/08 13:16:02;;;;;;;5.55;2.70;;;;;;;;;;5004000;28;20499;-60
2023/05/08 13:18:32;;;;;;;7.75;2.97;;;;;;;;;;5002140;28;20053;-60
2023/05/08 13:21:01;;;;;;;6.97;2.78;;;;;;;;;;5004879;28;20132;-60
2023/05/08 13:23:30;;;;;;;4.82;3.05;;;;;;;;;;5001553;28;20050;-62
2023/05/08 13:25:58;;;;;;;5.10;2.47;;;;;;;;;;5004705;28;20566;-61
2023/05/08 13:28:26;;;;;;;7.30;3.53;;;;;;;;;;5003051;28;20068;-62
2023/05/08 13:30:55;;;;;;;5.25;2.75;;;;;;;;;;5003418;28;20131;-65
2023/05/08 13:33:23;;;;;;;4.90;2.95;;;;;;;;;;5001222;28;20046;-61
2023/05/08 13:35:54;;;;;;;10.23;2.95;;;;;;;;;;5008159;28;20048;-62
2023/05/08 13:38:22;;;;;;;7.57;2.70;;;;;;;;;;5003765;28;20564;-59
2023/05/08 13:40:51;;;;;;;3.72;1.88;;;;;;;;;;5002012;28;20050;-60
2023/05/08 13:43:19;;;;;;;6.05;3.25;;;;;;;;;;5001336;28;20037;-59
2023/05/08 13:45:47;;;;;;;7.35;2.92;;;;;;;;;;5003394;28;20053;-60
2023/05/08 13:48:16;;;;;;;5.90;2.25;;;;;;;;;;5003342;28;21960;-61
2023/05/08 13:50:44;;;;;;;4.32;1.90;;;;;;;;;;5003189;28;20543;-61
2023/05/08 13:53:14;;;;;;;4.90;2.33;;;;;;;;;;5003661;28;20487;-62
2023/05/08 13:55:42;;;;;;;5.22;2.20;;;;;;;;;;5003131;28;20188;-60
2023/05/08 13:58:10;;;;;;;4.80;2.63;;;;;;;;;;5004179;28;20044;-61
2023/05/08 14:00:39;;;;;;;5.47;2.17;;;;;;;;;;5003597;28;20049;-63
2023/05/08 14:03:07;;;;;;;6.97;3.55;;;;;;;;;;4998495;28;20064;-59
2023/05/08 14:05:36;;;;;;;6.50;3.05;;;;;;;;;;5002719;28;20112;-64
2023/05/08 14:08:04;;;;;;;7.10;2.72;;;;;;;;;;5003092;28;20481;-64
2023/05/08 14:10:34;;;;;;;4.38;2.88;;;;;;;;;;5003255;28;20044;-62
2023/05/08 14:13:02;;;;;;;10.35;3.40;;;;;;;;;;5000141;28;20046;-62
2023/05/08 14:15:33;;;;;;;5.43;2.63;;;;;;;;;;4999300;28;20398;-60
2023/05/08 14:18:05;;;;;;;5.80;2.63;;;;;;;;;;5002186;28;20073;-61
2023/05/08 14:20:33;;;;;;;5.22;2.47;;;;;;;;;;5004177;28;20045;-61
2023/05/08 14:23:01;;;;;;;6.07;2.50;;;;;;;;;;5002382;28;20069;-62
2023/05/08 14:25:31;;;;;;;6.90;2.85;;;;;;;;;;5004161;28;20046;-60
2023/05/08 14:28:00;;;;;;;6.00;3.42;;;;;;;;;;4999263;28;20144;-62
2023/05/08 14:30:29;;;;;;;7.75;3.35;;;;;;;;;;5002486;28;20410;-62
2023/05/08 14:32:57;;;;;;;5.75;2.70;;;;;;;;;;5002129;28;20041;-63
2023/05/08 14:35:26;;;;;;;8.23;3.75;;;;;;;;;;5001598;28;20468;-61
2023/05/08 14:37:54;;;;;;;10.38;3.03;;;;;;;;;;5004705;28;20054;-60
2023/05/08 14:40:23;;;;;;;5.10;2.75;;;;;;;;;;4999594;28;20491;-61
2023/05/08 14:42:51;;;;;;;7.40;3.20;;;;;;;;;;5003144;28;20411;-61
2023/05/08 14:45:21;;;;;;;7.70;2.75;;;;;;;;;;5001681;28;20077;-61
2023/05/08 14:47:50;;;;;;;6.60;3.03;;;;;;;;;;5001912;28;20046;-63
2023/05/08 14:50:18;;;;;;;7.68;3.10;;;;;;;;;;5004496;28;20050;-62
2023/05/08 14:52:47;;;;;;;6.43;3.00;;;;;;;;;;5004321;28;20053;-61
2023/05/08 14:55:19;;;;;;;6.25;3.08;;;;;;;;;;5001388;28;20402;-61
2023/05/08 14:57:48;;;;;;;6.60;3.15;;;;;;;;;;4999570;28;20042;-63